createdAt,value
2019-03-13T00:00:45.545Z,83.70
2019-03-13T00:03:14.774Z,82.70
2019-03-13T00:05:43.211Z,83.70
2019-03-13T00:08:11.667Z,84.10
2019-03-13T00:10:40.375Z,82.90
2019-03-13T00:13:08.792Z,82.40
2019-03-13T00:15:37.176Z,82.10
2019-03-13T00:18:05.644Z,81.10
2019-03-13T00:20:34.277Z,82.20
2019-03-13T00:23:02.712Z,80.50
2019-03-13T00:25:31.088Z,81.40
2019-03-13T00:27:59.489Z,81.60
2019-03-13T00:30:27.901Z,81.40
2019-03-13T00:32:56.277Z,82.50
2019-03-13T00:35:24.679Z,81.20
2019-03-13T00:37:53.073Z,82.10
2019-03-13T00:40:21.485Z,82.20
2019-03-13T00:42:49.850Z,82.00
2019-03-13T00:45:18.257Z,81.80
2019-03-13T00:47:46.639Z,81.70
2019-03-13T00:50:34.595Z,81.30
2019-03-13T00:53:02.983Z,81.60
2019-03-13T00:55:31.378Z,81.10
2019-03-13T00:57:59.759Z,82.60
2019-03-13T01:00:45.820Z,81.40
2019-03-13T01:03:34.118Z,80.00
2019-03-13T01:06:06.612Z,80.20
2019-03-13T01:08:35.104Z,82.70
2019-03-13T01:11:03.550Z,82.10
2019-03-13T01:13:31.935Z,82.70
2019-03-13T01:16:00.324Z,82.30
2019-03-13T01:18:29.011Z,82.60
2019-03-13T01:20:57.402Z,82.20
2019-03-13T01:23:25.783Z,81.90
2019-03-13T01:25:54.189Z,82.50
2019-03-13T01:28:22.563Z,80.10
2019-03-13T01:31:09.180Z,81.70
2019-03-13T01:33:37.560Z,81.70
2019-03-13T01:36:07.224Z,79.70
2019-03-13T01:38:35.600Z,80.20
2019-03-13T01:41:04.041Z,80.90
2019-03-13T01:43:32.423Z,80.80
2019-03-13T01:46:00.812Z,82.30
2019-03-13T01:48:29.230Z,81.80
2019-03-13T01:50:57.917Z,80.70
2019-03-13T01:53:26.307Z,82.20
2019-03-13T01:55:54.687Z,81.40
2019-03-13T01:58:23.064Z,81.70
2019-03-13T02:00:51.469Z,81.80
2019-03-13T02:03:19.837Z,82.10
2019-03-13T02:05:48.224Z,82.60
2019-03-13T02:08:16.609Z,82.90
2019-03-13T02:10:45.018Z,82.80
2019-03-13T02:13:13.396Z,82.90
2019-03-13T02:15:41.788Z,83.30
2019-03-13T02:18:10.168Z,83.40
2019-03-13T02:20:39.131Z,83.10
2019-03-13T02:23:07.516Z,83.70
2019-03-13T02:25:35.901Z,83.90
2019-03-13T02:28:04.651Z,83.20
2019-03-13T02:30:33.048Z,83.70
2019-03-13T02:33:01.427Z,83.60
2019-03-13T02:35:29.813Z,83.10
2019-03-13T02:37:58.204Z,83.50
2019-03-13T02:40:26.588Z,83.70
2019-03-13T02:42:54.989Z,83.70
2019-03-13T02:45:23.347Z,83.50
2019-03-13T02:47:51.741Z,83.80
2019-03-13T02:50:20.125Z,83.80
2019-03-13T02:52:48.507Z,83.70
2019-03-13T02:55:16.988Z,83.10
2019-03-13T02:57:45.343Z,83.20
2019-03-13T03:00:20.170Z,82.90
2019-03-13T03:02:53.018Z,83.50
2019-03-13T03:05:21.406Z,83.20
2019-03-13T03:07:49.792Z,82.50
2019-03-13T03:10:18.169Z,82.80
2019-03-13T03:12:46.631Z,83.00
2019-03-13T03:15:18.863Z,82.30
2019-03-13T03:17:47.256Z,83.10
2019-03-13T03:20:18.076Z,83.10
2019-03-13T03:22:46.461Z,81.60
2019-03-13T03:25:16.509Z,82.70
2019-03-13T03:27:44.895Z,83.00
2019-03-13T03:30:23.555Z,80.20
2019-03-13T03:32:52.004Z,82.10
2019-03-13T03:35:20.393Z,82.20
2019-03-13T03:37:48.839Z,80.50
2019-03-13T03:40:23.070Z,81.60
2019-03-13T03:42:51.077Z,79.50
2019-03-13T03:45:19.535Z,79.70
2019-03-13T03:47:48.112Z,80.80
2019-03-13T03:50:17.435Z,80.80
2019-03-13T03:52:46.105Z,81.30
2019-03-13T03:55:16.672Z,80.70
2019-03-13T03:57:45.214Z,80.60
2019-03-13T04:00:18.597Z,80.60
2019-03-13T04:02:46.979Z,81.10
2019-03-13T04:05:15.802Z,82.30
2019-03-13T04:07:44.533Z,82.90
2019-03-13T04:10:15.078Z,83.50
2019-03-13T04:12:43.456Z,84.10
2019-03-13T04:15:13.177Z,83.40
2019-03-13T04:17:41.559Z,83.70
2019-03-13T04:20:14.385Z,84.20
2019-03-13T04:22:42.744Z,84.00
2019-03-13T04:25:22.898Z,83.60
2019-03-13T04:27:51.274Z,83.70
2019-03-13T04:30:19.667Z,83.50
2019-03-13T04:32:48.036Z,84.10
2019-03-13T04:35:16.424Z,83.70
2019-03-13T04:37:44.820Z,84.50
2019-03-13T04:40:14.254Z,84.30
2019-03-13T04:42:42.684Z,83.90
2019-03-13T04:45:11.764Z,83.80
2019-03-13T04:47:40.406Z,83.50
2019-03-13T04:50:13.752Z,83.50
2019-03-13T04:52:42.126Z,83.80
2019-03-13T04:55:11.944Z,83.60
2019-03-13T04:57:40.322Z,83.40
2019-03-13T05:00:14.122Z,83.80
2019-03-13T05:02:42.564Z,83.60
2019-03-13T05:05:16.794Z,83.60
2019-03-13T05:07:45.178Z,83.50
2019-03-13T05:10:13.556Z,83.40
2019-03-13T05:12:41.930Z,83.70
2019-03-13T05:15:10.315Z,83.00
2019-03-13T05:17:38.696Z,83.30
2019-03-13T05:20:07.086Z,83.50
2019-03-13T05:22:35.464Z,83.70
2019-03-13T05:25:04.889Z,83.40
2019-03-13T05:27:33.281Z,83.70
2019-03-13T05:30:01.705Z,83.40
2019-03-13T05:32:30.093Z,83.40
2019-03-13T05:34:58.515Z,83.60
2019-03-13T05:37:26.952Z,83.90
2019-03-13T05:39:55.340Z,84.10
2019-03-13T05:42:23.728Z,84.10
2019-03-13T05:44:52.115Z,83.90
2019-03-13T05:47:20.508Z,84.00
2019-03-13T05:49:48.904Z,83.50
2019-03-13T05:52:17.320Z,84.10
2019-03-13T05:54:45.933Z,83.70
2019-03-13T05:57:14.317Z,84.00
2019-03-13T05:59:42.684Z,84.30
2019-03-13T06:02:11.077Z,83.80
2019-03-13T06:04:39.472Z,82.90
2019-03-13T06:07:07.875Z,83.30
2019-03-13T06:09:36.270Z,82.90
2019-03-13T06:12:04.664Z,83.50
2019-03-13T06:14:33.048Z,82.90
2019-03-13T06:17:01.525Z,81.90
2019-03-13T06:19:29.902Z,82.50
2019-03-13T06:21:58.293Z,83.10
2019-03-13T06:24:26.765Z,82.50
2019-03-13T06:26:55.148Z,82.10
2019-03-13T06:29:23.530Z,82.60
2019-03-13T06:31:51.916Z,81.60
2019-03-13T06:34:20.301Z,81.10
2019-03-13T06:36:48.695Z,81.50
2019-03-13T06:39:17.080Z,80.60
2019-03-13T06:41:45.480Z,81.00
2019-03-13T06:44:13.860Z,80.40
2019-03-13T06:46:42.256Z,80.20
2019-03-13T06:49:10.642Z,80.70
2019-03-13T06:51:39.032Z,80.50
2019-03-13T06:54:07.420Z,79.70
2019-03-13T06:56:35.808Z,79.30
2019-03-13T06:59:05.829Z,80.20
2019-03-13T07:01:35.856Z,80.40
2019-03-13T07:04:24.088Z,80.00
2019-03-13T07:06:54.116Z,79.90
2019-03-13T07:09:32.861Z,79.60
2019-03-13T07:12:19.525Z,80.30
2019-03-13T07:14:49.550Z,80.00
2019-03-13T07:17:35.532Z,80.70
2019-03-13T07:20:24.796Z,80.00
2019-03-13T07:22:57.807Z,80.20
2019-03-13T07:25:30.735Z,80.40
2019-03-13T07:28:00.765Z,80.20
2019-03-13T07:30:30.784Z,80.60
2019-03-13T07:33:03.767Z,80.00
2019-03-13T07:35:33.779Z,79.40
2019-03-13T07:38:15.551Z,80.00
2019-03-13T07:40:53.130Z,79.00
2019-03-13T07:43:38.070Z,78.90
2019-03-13T07:46:08.083Z,78.50
2019-03-13T07:48:38.105Z,78.10
2019-03-13T07:51:10.580Z,77.70
2019-03-13T07:53:57.001Z,77.00
2019-03-13T07:56:36.090Z,77.10
2019-03-13T07:59:06.126Z,77.70
2019-03-13T08:01:36.142Z,78.40
2019-03-13T08:04:08.907Z,79.60
2019-03-13T08:06:44.975Z,80.70
2019-03-13T08:09:18.018Z,80.80
2019-03-13T08:11:48.037Z,81.20
2019-03-13T08:14:18.138Z,81.30
2019-03-13T08:17:04.238Z,81.60
2019-03-13T08:19:50.383Z,81.00
2019-03-13T08:22:26.468Z,80.50
2019-03-13T08:25:14.350Z,81.30
2019-03-13T08:27:50.176Z,80.50
2019-03-13T08:30:26.302Z,81.20
2019-03-13T08:33:08.437Z,80.40
2019-03-13T08:35:47.446Z,80.60
2019-03-13T08:38:17.478Z,79.80
2019-03-13T08:40:47.496Z,79.40
2019-03-13T08:43:23.251Z,79.50
2019-03-13T08:46:11.408Z,79.20
2019-03-13T08:48:47.113Z,78.80
2019-03-13T08:51:31.941Z,79.00
2019-03-13T08:54:07.816Z,79.20
2019-03-13T08:56:38.096Z,77.50
2019-03-13T08:59:14.078Z,77.10
2019-03-13T09:01:44.098Z,76.80
2019-03-13T09:04:16.926Z,76.50
2019-03-13T09:06:46.933Z,76.80
2019-03-13T09:09:16.977Z,76.10
2019-03-13T09:12:03.295Z,74.00
2019-03-13T09:14:33.340Z,74.10
2019-03-13T09:17:06.306Z,74.30
2019-03-13T09:19:39.115Z,73.40
2019-03-13T09:22:12.110Z,73.20
2019-03-13T09:24:42.150Z,67.10
2019-03-13T09:27:28.173Z,69.70
2019-03-13T09:30:10.326Z,65.30
2019-03-13T09:32:43.300Z,66.50
2019-03-13T09:35:13.358Z,69.20
2019-03-13T09:37:43.381Z,70.00
2019-03-13T09:40:19.261Z,69.60
2019-03-13T09:43:01.388Z,68.70
2019-03-13T09:45:31.433Z,67.30
2019-03-13T09:48:16.169Z,65.50
2019-03-13T09:50:46.203Z,65.30
2019-03-13T09:53:16.236Z,65.40
2019-03-13T09:56:04.255Z,64.80
2019-03-13T09:58:36.784Z,65.00
2019-03-13T10:01:22.904Z,64.50
2019-03-13T10:03:52.918Z,63.80
2019-03-13T10:06:39.199Z,63.30
2019-03-13T10:09:15.796Z,62.90
2019-03-13T10:11:45.833Z,64.80
2019-03-13T10:14:15.858Z,67.90
2019-03-13T10:16:48.291Z,67.20
2019-03-13T10:19:20.848Z,61.80
2019-03-13T10:21:50.889Z,63.10
2019-03-13T10:24:20.908Z,65.70
2019-03-13T10:26:50.958Z,62.90
2019-03-13T10:29:37.181Z,63.60
2019-03-13T10:32:09.955Z,61.90
2019-03-13T10:34:42.437Z,62.90
2019-03-13T10:37:12.470Z,58.90
2019-03-13T10:39:57.116Z,60.30
2019-03-13T10:42:29.884Z,61.00
2019-03-13T10:45:08.985Z,60.60
2019-03-13T10:47:48.160Z,56.90
2019-03-13T10:50:24.068Z,59.60
2019-03-13T10:53:08.905Z,59.00
2019-03-13T10:55:41.581Z,59.20
2019-03-13T10:58:23.820Z,59.10
2019-03-13T11:01:05.753Z,61.30
2019-03-13T11:03:35.768Z,59.50
2019-03-13T11:06:08.891Z,61.30
2019-03-13T11:08:44.448Z,63.40
2019-03-13T11:11:14.482Z,66.40
2019-03-13T11:13:47.166Z,67.60
2019-03-13T11:16:22.913Z,67.20
2019-03-13T11:18:52.943Z,66.30
2019-03-13T11:21:25.689Z,64.10
2019-03-13T11:24:04.453Z,64.30
2019-03-13T11:26:52.117Z,64.20
2019-03-13T11:29:28.817Z,64.00
2019-03-13T11:32:07.897Z,61.10
2019-03-13T11:34:55.980Z,62.70
2019-03-13T11:37:42.473Z,62.80
2019-03-13T11:40:20.709Z,61.40
2019-03-13T11:42:56.851Z,60.90
2019-03-13T11:45:33.172Z,61.60
2019-03-13T11:48:15.340Z,61.60
2019-03-13T11:50:48.331Z,60.20
2019-03-13T11:53:18.390Z,59.90
2019-03-13T11:55:51.184Z,59.70
2019-03-13T11:58:30.126Z,58.70
2019-03-13T12:01:17.464Z,56.70
2019-03-13T12:03:52.661Z,55.90
2019-03-13T12:06:25.623Z,58.10
2019-03-13T12:09:01.364Z,58.10
2019-03-13T12:11:50.608Z,55.80
2019-03-13T12:14:26.125Z,54.50
2019-03-13T12:17:05.092Z,56.20
2019-03-13T12:19:35.147Z,57.60
2019-03-13T12:22:14.115Z,57.20
2019-03-13T12:24:49.975Z,57.10
2019-03-13T12:27:22.823Z,56.30
2019-03-13T12:29:58.880Z,57.40
2019-03-13T12:32:34.728Z,58.30
2019-03-13T12:35:13.961Z,58.70
2019-03-13T12:37:50.109Z,57.70
2019-03-13T12:42:57.936Z,58.00
2019-03-13T12:45:39.914Z,57.60
2019-03-13T12:48:16.898Z,54.90
2019-03-13T12:50:44.342Z,57.30
2019-03-13T12:53:19.936Z,57.40
2019-03-13T12:55:49.979Z,56.20
2019-03-13T12:58:20.020Z,56.10
2019-03-13T13:00:52.772Z,56.50
2019-03-13T13:03:40.693Z,55.80
2019-03-13T13:06:16.684Z,57.40
2019-03-13T13:08:49.408Z,57.70
2019-03-13T13:11:28.660Z,56.70
2019-03-13T13:14:04.676Z,57.30
2019-03-13T13:16:37.431Z,57.40
2019-03-13T13:19:06.060Z,57.10
2019-03-13T13:21:34.452Z,57.30
2019-03-13T13:24:02.864Z,58.10
2019-03-13T13:26:31.260Z,57.90
2019-03-13T13:28:59.660Z,58.50
2019-03-13T13:31:28.055Z,59.90
2019-03-13T13:33:56.527Z,61.10
2019-03-13T13:36:26.867Z,61.10
2019-03-13T13:38:55.033Z,61.60
2019-03-13T13:41:23.416Z,59.20
2019-03-13T13:43:51.803Z,61.90
2019-03-13T13:46:23.036Z,60.70
2019-03-13T13:48:52.959Z,59.80
2019-03-13T13:51:21.349Z,59.60
2019-03-13T13:53:49.739Z,60.80
2019-03-13T13:56:18.149Z,57.90
2019-03-13T13:58:46.563Z,58.90
2019-03-13T14:01:14.937Z,59.70
2019-03-13T14:03:43.324Z,58.40
2019-03-13T14:06:11.725Z,59.30
2019-03-13T14:08:40.136Z,61.80
2019-03-13T14:11:08.564Z,61.50
2019-03-13T14:13:36.953Z,60.30
2019-03-13T14:16:05.348Z,58.40
2019-03-13T14:18:33.754Z,60.50
2019-03-13T14:21:02.148Z,60.30
2019-03-13T14:23:30.532Z,59.50
2019-03-13T14:25:58.941Z,59.40
2019-03-13T14:28:27.329Z,60.40
2019-03-13T14:30:55.744Z,58.70
2019-03-13T14:33:24.128Z,59.30
2019-03-13T14:35:52.548Z,58.80
2019-03-13T14:38:21.144Z,59.30
2019-03-13T14:40:49.540Z,60.20
2019-03-13T14:43:18.169Z,59.60
2019-03-13T14:45:46.638Z,61.00
2019-03-13T14:48:15.043Z,61.00
2019-03-13T14:50:43.440Z,60.20
2019-03-13T14:53:11.828Z,62.00
2019-03-13T14:55:40.226Z,61.60
2019-03-13T14:58:08.603Z,63.00
2019-03-13T15:00:37.025Z,62.40
2019-03-13T15:03:05.463Z,62.00
2019-03-13T15:05:33.872Z,63.70
2019-03-13T15:08:02.265Z,63.50
2019-03-13T15:10:30.667Z,64.70
2019-03-13T15:12:59.058Z,64.40
2019-03-13T15:15:27.463Z,65.50
2019-03-13T15:17:55.853Z,64.70
2019-03-13T15:20:25.591Z,65.00
2019-03-13T15:22:54.041Z,64.40
2019-03-13T15:25:22.540Z,63.50
2019-03-13T15:27:50.964Z,64.60
2019-03-13T15:30:23.910Z,63.80
2019-03-13T15:32:52.374Z,64.50
2019-03-13T15:35:20.990Z,65.70
2019-03-13T15:37:49.393Z,66.60
2019-03-13T15:40:18.722Z,67.90
2019-03-13T15:42:48.073Z,69.10
2019-03-13T15:45:21.407Z,67.70
2019-03-13T15:47:49.803Z,68.80
2019-03-13T15:50:18.196Z,68.10
2019-03-13T15:52:46.609Z,69.10
2019-03-13T15:55:16.427Z,68.40
2019-03-13T15:57:44.824Z,67.20
2019-03-13T16:00:18.370Z,67.30
2019-03-13T16:02:46.764Z,67.50
2019-03-13T16:05:15.161Z,66.90
2019-03-13T16:07:43.636Z,68.00
2019-03-13T16:10:16.532Z,66.90
2019-03-13T16:12:44.930Z,63.80
2019-03-13T16:15:22.502Z,65.40
2019-03-13T16:17:50.908Z,65.20
2019-03-13T16:20:19.739Z,66.20
2019-03-13T16:22:55.424Z,64.30
2019-03-13T16:25:23.800Z,65.20
2019-03-13T16:27:52.209Z,65.60
2019-03-13T16:30:32.040Z,66.20
2019-03-13T16:33:00.445Z,64.30
2019-03-13T16:35:28.826Z,65.10
2019-03-13T16:37:57.219Z,65.60
2019-03-13T16:40:25.614Z,67.00
2019-03-13T16:42:53.994Z,65.20
2019-03-13T16:45:23.008Z,64.80
2019-03-13T16:47:51.427Z,64.00
2019-03-13T16:50:22.155Z,65.20
2019-03-13T16:52:50.646Z,64.30
2019-03-13T16:55:20.183Z,64.30
2019-03-13T16:57:48.553Z,65.40
2019-03-13T17:00:27.876Z,66.20
2019-03-13T17:02:56.451Z,67.30
2019-03-13T17:05:25.007Z,67.90
2019-03-13T17:07:53.481Z,68.00
2019-03-13T17:10:28.901Z,68.80
2019-03-13T17:12:57.415Z,69.10
2019-03-13T17:15:26.116Z,69.10
2019-03-13T17:17:54.780Z,70.20
2019-03-13T17:20:37.612Z,69.80
2019-03-13T17:23:06.015Z,69.80
2019-03-13T17:25:34.694Z,70.60
2019-03-13T17:28:03.100Z,71.10
2019-03-13T17:30:32.343Z,71.90
2019-03-13T17:33:01.079Z,72.10
2019-03-13T17:35:29.469Z,72.50
2019-03-13T17:37:57.852Z,73.20
2019-03-13T17:40:28.554Z,73.70
2019-03-13T17:42:56.946Z,74.90
2019-03-13T17:45:25.588Z,75.70
2019-03-13T17:47:54.254Z,77.30
2019-03-13T17:50:26.223Z,78.60
2019-03-13T17:52:54.621Z,79.30
2019-03-13T17:55:24.900Z,79.90
2019-03-13T17:57:53.469Z,80.00
2019-03-13T18:00:36.858Z,80.60
2019-03-13T18:03:05.627Z,81.30
2019-03-13T18:05:33.994Z,82.20
2019-03-13T18:08:04.020Z,81.80
2019-03-13T18:10:32.413Z,82.50
2019-03-13T18:13:00.917Z,82.70
2019-03-13T18:15:29.322Z,82.90
2019-03-13T18:17:57.727Z,82.60
2019-03-13T18:20:26.174Z,83.10
2019-03-13T18:22:54.571Z,83.40
2019-03-13T18:25:23.054Z,83.90
2019-03-13T18:27:51.449Z,84.20
2019-03-13T18:30:24.189Z,84.60
2019-03-13T18:32:52.567Z,84.80
2019-03-13T18:35:21.208Z,84.90
2019-03-13T18:37:49.585Z,85.00
2019-03-13T18:40:19.423Z,84.60
2019-03-13T18:42:47.799Z,85.00
2019-03-13T18:45:24.176Z,85.50
2019-03-13T18:47:53.085Z,85.60
2019-03-13T18:50:21.644Z,85.60
2019-03-13T18:52:50.110Z,86.20
2019-03-13T18:55:20.629Z,85.80
2019-03-13T18:57:50.751Z,85.90
2019-03-13T19:00:21.604Z,86.00
2019-03-13T19:02:50.104Z,86.20
2019-03-13T19:05:18.500Z,85.80
2019-03-13T19:07:46.937Z,87.50
2019-03-13T19:10:20.335Z,87.40
2019-03-13T19:12:48.819Z,87.00
2019-03-13T19:15:19.605Z,87.70
2019-03-13T19:17:48.129Z,86.90
2019-03-13T19:20:19.076Z,87.60
2019-03-13T19:22:47.456Z,88.50
2019-03-13T19:25:16.329Z,88.70
2019-03-13T19:27:44.906Z,87.20
2019-03-13T19:30:28.299Z,88.00
2019-03-13T19:32:56.822Z,89.20
2019-03-13T19:35:25.213Z,90.20
2019-03-13T19:37:54.432Z,88.10
2019-03-13T19:40:23.124Z,90.20
2019-03-13T19:42:51.588Z,88.00
2019-03-13T19:45:31.616Z,89.10
2019-03-13T19:48:01.543Z,89.80
2019-03-13T19:50:30.235Z,90.30
2019-03-13T19:52:58.617Z,87.90
2019-03-13T19:55:27.013Z,88.40
2019-03-13T19:57:57.115Z,90.60
2019-03-13T20:00:26.058Z,89.30
2019-03-13T20:03:00.809Z,89.80
2019-03-13T20:05:29.452Z,89.90
2019-03-13T20:07:57.833Z,90.10
2019-03-13T20:10:27.478Z,91.10
2019-03-13T20:12:56.066Z,91.30
2019-03-13T20:15:26.324Z,91.10
2019-03-13T20:17:54.705Z,90.60
2019-03-13T20:20:23.829Z,91.20
2019-03-13T20:23:06.525Z,90.70
2019-03-13T20:25:34.993Z,90.50
2019-03-13T20:28:03.444Z,90.90
2019-03-13T20:30:31.992Z,90.10
2019-03-13T20:33:00.462Z,90.40
2019-03-13T20:35:28.836Z,90.80
2019-03-13T20:37:57.227Z,90.90
2019-03-13T20:40:26.922Z,90.80
2019-03-13T20:42:55.315Z,91.10
2019-03-13T20:45:28.751Z,90.90
2019-03-13T20:47:57.479Z,90.90
2019-03-13T20:50:36.025Z,90.70
2019-03-13T20:52:56.064Z,90.70
2019-03-13T20:55:24.680Z,90.80
2019-03-13T20:57:53.065Z,90.60
2019-03-13T21:00:28.180Z,90.60
2019-03-13T21:02:57.321Z,90.60
2019-03-13T21:05:26.072Z,90.60
2019-03-13T21:07:54.814Z,90.70
2019-03-13T21:10:23.433Z,90.60
2019-03-13T21:12:51.899Z,90.30
2019-03-13T21:15:24.988Z,90.40
2019-03-13T21:17:53.554Z,90.60
2019-03-13T21:20:22.190Z,90.80
2019-03-13T21:22:50.569Z,90.40
2019-03-13T21:25:25.943Z,90.80
2019-03-13T21:27:54.413Z,90.70
2019-03-13T21:30:30.169Z,90.30
2019-03-13T21:32:58.644Z,90.30
2019-03-13T21:35:27.132Z,90.30
2019-03-13T21:37:55.508Z,90.80
2019-03-13T21:40:28.582Z,90.90
2019-03-13T21:42:57.202Z,90.20
2019-03-13T21:45:25.674Z,90.60
2019-03-13T21:47:54.135Z,90.30
2019-03-13T21:50:22.976Z,90.60
2019-03-13T21:52:51.390Z,90.70
2019-03-13T21:55:20.165Z,90.80
2019-03-13T21:57:51.567Z,90.90
2019-03-13T22:00:27.981Z,91.00
2019-03-13T22:02:56.362Z,91.00
2019-03-13T22:05:26.590Z,91.30
2019-03-13T22:07:54.975Z,91.30
2019-03-13T22:10:23.435Z,90.20
2019-03-13T22:12:51.993Z,90.30
2019-03-13T22:15:23.861Z,90.30
2019-03-13T22:17:52.338Z,90.60
2019-03-13T22:20:20.884Z,90.30
2019-03-13T22:22:49.450Z,90.70
2019-03-13T22:25:19.187Z,90.50
2019-03-13T22:27:47.597Z,91.10
2019-03-13T22:30:23.411Z,90.60
2019-03-13T22:32:52.458Z,91.60
2019-03-13T22:35:20.842Z,90.90
2019-03-13T22:37:49.234Z,91.40
2019-03-13T22:40:18.164Z,91.20
2019-03-13T22:42:46.803Z,91.50
2019-03-13T22:45:18.362Z,90.90
2019-03-13T22:47:46.743Z,90.90
2019-03-13T22:50:23.524Z,90.80
2019-03-13T22:52:52.044Z,90.60
2019-03-13T22:55:20.459Z,90.50
2019-03-13T22:57:48.841Z,90.70
2019-03-13T23:00:47.106Z,90.50
2019-03-13T23:03:16.347Z,91.10
2019-03-13T23:05:44.801Z,90.50
2019-03-13T23:08:13.188Z,90.80
2019-03-13T23:10:41.588Z,91.80
2019-03-13T23:13:09.992Z,91.50
2019-03-13T23:15:38.401Z,91.20
2019-03-13T23:18:06.800Z,90.70
2019-03-13T23:20:35.210Z,90.70
2019-03-13T23:23:03.600Z,90.30
2019-03-13T23:25:32.005Z,91.00
2019-03-13T23:28:00.503Z,91.00
2019-03-13T23:30:28.888Z,90.50
2019-03-13T23:32:57.282Z,91.50
2019-03-13T23:35:25.692Z,91.90
2019-03-13T23:37:54.096Z,91.60
2019-03-13T23:40:22.503Z,91.70
2019-03-13T23:42:50.885Z,91.30
2019-03-13T23:45:19.289Z,91.90
2019-03-13T23:47:47.672Z,91.60
2019-03-13T23:50:16.066Z,91.30
2019-03-13T23:52:44.460Z,91.60
2019-03-13T23:55:12.938Z,92.00
2019-03-13T23:57:41.325Z,91.40
